Time;durP1;ratioP1;P1;durP2;ratioP2;P2;SDS_P1;SDS_P2;PMS_P1;PMS_P2;Temp;Humidity;BMP_temperature;BMP_pressure;BME280_temperature;BME280_humidity;BME280_pressure;Samples;Min_cycle;Max_cycle;Signal;HPM_P1;HPM_P2
2024/02/01 00:00:28;;;;;;;15.30;11.20;;;;;;;20.46;28.77;102205.81;102589;1295;73795;-79
2024/02/01 00:02:53;;;;;;;13.20;10.50;;;;;;;20.46;28.64;102198.64;102777;1295;62725;-79
2024/02/01 00:05:19;;;;;;;12.90;10.20;;;;;;;20.47;28.65;102204.17;102673;1294;61442;-79
2024/02/01 00:07:45;;;;;;;13.00;10.20;;;;;;;20.47;28.66;102204.52;102692;1294;61392;-79
2024/02/01 00:10:11;;;;;;;13.90;10.60;;;;;;;20.47;28.61;102202.90;102788;1294;61408;-79
2024/02/01 00:12:37;;;;;;;13.20;10.20;;;;;;;20.48;28.61;102200.38;102595;1299;62116;-79
2024/02/01 00:15:03;;;;;;;14.40;10.60;;;;;;;20.47;28.49;102198.95;102633;1294;74412;-79
2024/02/01 00:17:30;;;;;;;14.30;10.70;;;;;;;20.48;28.73;102198.77;102704;1295;62193;-79
2024/02/01 00:19:56;;;;;;;16.00;10.60;;;;;;;20.47;28.65;102200.03;102824;1293;61858;-80
2024/02/01 00:22:21;;;;;;;13.60;10.20;;;;;;;20.47;28.57;102195.38;102564;1298;61405;-79
2024/02/01 00:24:49;;;;;;;14.10;10.30;;;;;;;20.47;28.61;102190.56;102611;1295;61495;-79
2024/02/01 00:27:16;;;;;;;16.70;11.10;;;;;;;20.48;28.66;102193.02;102795;1292;61418;-80
2024/02/01 00:29:42;;;;;;;13.10;9.90;;;;;;;20.47;28.67;102190.19;102764;1294;62533;-79
2024/02/01 00:32:07;;;;;;;12.80;10.20;;;;;;;20.48;28.64;102190.52;102721;1296;61414;-80
2024/02/01 00:34:34;;;;;;;15.60;10.30;;;;;;;20.48;28.51;102187.64;102785;1296;62433;-78
2024/02/01 00:36:59;;;;;;;14.60;10.40;;;;;;;20.49;28.65;102189.23;102743;1293;61405;-79
2024/02/01 00:39:25;;;;;;;13.20;9.90;;;;;;;20.49;28.63;102190.68;102596;1294;61489;-79
2024/02/01 00:41:51;;;;;;;13.90;10.40;;;;;;;20.50;28.66;102193.85;102743;1295;62093;-79
2024/02/01 00:44:17;;;;;;;15.10;10.80;;;;;;;20.49;28.57;102193.66;102651;1293;72602;-79
2024/02/01 00:46:43;;;;;;;14.30;10.30;;;;;;;20.49;28.61;102190.98;102591;1297;61792;-80
2024/02/01 00:49:08;;;;;;;14.10;10.50;;;;;;;20.50;28.43;102194.20;102737;1295;61362;-79
2024/02/01 00:51:34;;;;;;;13.60;10.80;;;;;;;20.50;28.59;102192.56;102792;1294;62094;-79
2024/02/01 00:54:00;;;;;;;13.90;10.60;;;;;;;20.50;28.63;102190.23;102737;1297;61420;-79
2024/02/01 00:56:26;;;;;;;12.90;10.30;;;;;;;20.51;28.59;102186.10;102646;1294;61276;-78
2024/02/01 00:58:52;;;;;;;14.30;10.70;;;;;;;20.51;28.60;102184.67;102648;1300;61500;-79
2024/02/01 01:01:18;;;;;;;14.10;10.30;;;;;;;20.51;28.63;102183.94;102797;1296;61289;-79
2024/02/01 01:03:44;;;;;;;14.50;10.90;;;;;;;20.51;28.57;102176.06;102692;1296;61899;-79
2024/02/01 01:06:10;;;;;;;14.30;10.90;;;;;;;20.51;28.58;102168.20;102579;1294;61853;-80
2024/02/01 01:08:36;;;;;;;15.50;10.80;;;;;;;20.52;28.48;102169.42;102712;1296;61591;-79
2024/02/01 01:11:01;;;;;;;13.00;10.50;;;;;;;20.51;28.34;102158.00;102721;1297;61456;-80
2024/02/01 01:13:28;;;;;;;13.90;10.50;;;;;;;20.51;28.46;102157.27;102719;1294;61421;-79
2024/02/01 01:15:54;;;;;;;14.40;11.00;;;;;;;20.52;28.44;102159.02;102703;1297;61420;-80
2024/02/01 01:18:20;;;;;;;13.20;10.40;;;;;;;20.53;28.52;102159.54;102655;1296;62095;-80
2024/02/01 01:20:45;;;;;;;14.20;11.10;;;;;;;20.53;28.35;102159.34;102650;1297;74422;-79
2024/02/01 01:23:11;;;;;;;13.80;10.50;;;;;;;20.53;28.43;102153.98;102704;1293;61398;-80
2024/02/01 01:25:37;;;;;;;14.30;10.60;;;;;;;20.53;28.41;102150.41;102546;1293;61492;-79
2024/02/01 01:28:03;;;;;;;13.10;10.20;;;;;;;20.53;28.41;102143.06;102574;1294;62543;-78
2024/02/01 01:30:29;;;;;;;14.00;10.60;;;;;;;20.53;28.41;102141.27;102569;1297;62098;-79
2024/02/01 01:32:55;;;;;;;12.90;9.90;;;;;;;20.53;28.51;102139.13;102745;1294;61380;-79
2024/02/01 01:35:21;;;;;;;13.60;10.50;;;;;;;20.53;28.46;102138.95;102562;1292;62237;-80
2024/02/01 01:37:47;;;;;;;14.40;10.40;;;;;;;20.53;28.31;102139.66;102722;1296;61551;-80
2024/02/01 01:40:15;;;;;;;13.00;10.40;;;;;;;20.53;28.36;102140.18;102457;1292;72288;-79
2024/02/01 01:42:45;;;;;;;12.20;10.70;;;;;;;20.54;28.48;102135.71;102643;1293;74466;-79
2024/02/01 01:45:11;;;;;;;14.80;10.40;;;;;;;20.54;28.39;102130.15;102613;1299;61864;-79
2024/02/01 01:47:37;;;;;;;13.10;9.90;;;;;;;20.54;28.51;102124.80;102798;1294;61459;-79
2024/02/01 01:50:03;;;;;;;12.80;10.20;;;;;;;20.54;28.43;102116.55;102745;1296;61486;-79
2024/02/01 01:52:28;;;;;;;13.30;10.40;;;;;;;20.54;28.49;102114.02;102705;1300;62266;-79
2024/02/01 01:54:58;;;;;;;14.60;10.40;;;;;;;20.54;28.43;102109.39;102583;1297;61479;-79
2024/02/01 01:57:25;;;;;;;13.10;10.10;;;;;;;20.54;28.44;102104.73;102569;1293;61368;-79
2024/02/01 01:59:53;;;;;;;13.20;10.20;;;;;;;20.54;28.38;102101.15;102720;1294;73282;-81
2024/02/01 02:02:18;;;;;;;14.90;10.80;;;;;;;20.55;28.45;102099.71;102664;1300;75297;-80
2024/02/01 02:04:44;;;;;;;13.70;10.40;;;;;;;20.55;28.42;102095.23;102657;1294;61532;-80
2024/02/01 02:07:10;;;;;;;13.50;10.70;;;;;;;20.55;28.34;102095.39;102598;1295;62829;-79
2024/02/01 02:09:36;;;;;;;13.60;10.60;;;;;;;20.55;28.32;102093.60;102705;1297;61344;-79
2024/02/01 02:12:02;;;;;;;13.90;10.40;;;;;;;20.56;28.32;102088.39;102676;1299;61393;-79
2024/02/01 02:14:28;;;;;;;11.70;9.70;;;;;;;20.56;28.32;102088.56;102637;1294;62541;-79
2024/02/01 02:16:53;;;;;;;14.20;10.60;;;;;;;20.56;28.15;102083.38;102665;1296;61438;-79
2024/02/01 02:19:20;;;;;;;14.10;10.40;;;;;;;20.56;28.31;102078.89;102653;1297;61405;-79
2024/02/01 02:21:47;;;;;;;13.50;10.30;;;;;;;20.56;28.23;102076.38;102602;1293;72619;-79
2024/02/01 02:24:14;;;;;;;13.70;10.50;;;;;;;20.56;28.35;102072.83;102713;1293;74543;-79
2024/02/01 02:26:40;;;;;;;15.60;11.00;;;;;;;20.57;28.27;102071.88;102709;1296;61347;-78
2024/02/01 02:29:06;;;;;;;13.70;10.60;;;;;;;20.57;28.44;102071.86;102653;1294;61976;-79
2024/02/01 02:31:32;;;;;;;13.20;10.40;;;;;;;20.57;28.23;102080.61;102736;1294;61431;-79
2024/02/01 02:33:59;;;;;;;13.50;10.50;;;;;;;20.57;28.36;102080.43;102734;1297;61389;-79
2024/02/01 02:36:25;;;;;;;13.10;9.70;;;;;;;20.57;28.29;102078.47;102568;1297;61337;-79
2024/02/01 02:38:51;;;;;;;13.50;10.50;;;;;;;20.58;28.32;102080.05;102584;1294;61920;-80
2024/02/01 02:41:17;;;;;;;14.00;10.40;;;;;;;20.58;28.26;102080.58;102732;1294;61299;-80
2024/02/01 02:43:43;;;;;;;14.40;10.50;;;;;;;20.58;28.20;102080.77;102635;1292;61431;-80
2024/02/01 02:46:09;;;;;;;13.10;10.80;;;;;;;20.58;28.29;102080.02;103010;1296;61323;-79
2024/02/01 02:48:37;;;;;;;13.60;10.90;;;;;;;20.58;28.24;102079.52;102705;1297;61658;-78
2024/02/01 02:51:04;;;;;;;14.00;10.50;;;;;;;20.58;28.30;102078.59;102829;1293;61517;-79
2024/02/01 02:53:30;;;;;;;14.90;10.90;;;;;;;20.58;28.21;102073.58;102795;1291;72587;-80
2024/02/01 02:55:58;;;;;;;14.00;10.60;;;;;;;20.59;28.29;102075.88;102677;1293;62072;-79
2024/02/01 02:58:24;;;;;;;14.40;10.50;;;;;;;20.59;28.25;102074.79;102648;1294;61364;-79
2024/02/01 03:00:50;;;;;;;12.50;10.40;;;;;;;20.60;28.07;102076.02;102724;1297;61513;-80
2024/02/01 03:03:18;;;;;;;14.50;10.70;;;;;;;20.60;28.29;102071.38;102685;1296;61395;-79
2024/02/01 03:05:43;;;;;;;14.10;11.20;;;;;;;20.60;28.24;102066.36;102402;1294;73296;-79
2024/02/01 03:08:09;;;;;;;14.60;11.00;;;;;;;20.60;28.04;102056.34;102670;1297;61571;-79
2024/02/01 03:10:38;;;;;;;13.50;10.70;;;;;;;20.59;28.24;102051.89;102794;1294;62285;-79
2024/02/01 03:13:10;;;;;;;13.90;10.10;;;;;;;20.60;28.15;102050.63;102491;1300;72398;-80
2024/02/01 03:15:39;;;;;;;12.70;9.80;;;;;;;20.60;28.31;102050.81;102530;1298;75442;-80
2024/02/01 03:18:05;;;;;;;13.00;10.30;;;;;;;20.60;28.20;102053.13;102630;1298;61380;-80
2024/02/01 03:20:32;;;;;;;13.30;10.10;;;;;;;20.60;28.11;102050.08;102640;1298;61420;-80
2024/02/01 03:22:58;;;;;;;14.50;10.40;;;;;;;20.60;28.15;102053.47;102773;1293;72747;-80
2024/02/01 03:25:31;;;;;;;14.10;10.80;;;;;;;20.61;28.21;102056.67;102626;1294;61451;-79
2024/02/01 03:28:00;;;;;;;13.00;10.40;;;;;;;20.60;28.19;102047.91;102587;1294;61739;-79
2024/02/01 03:30:32;;;;;;;;;;;;;;;20.60;28.05;102041.48;102772;1299;61730;-79
2024/02/01 03:33:03;;;;;;;13.40;10.20;;;;;;;20.57;28.02;102039.83;102928;1291;71426;-79
2024/02/01 03:35:31;;;;;;;14.90;11.10;;;;;;;20.59;28.26;102040.64;102741;1297;74455;-79
2024/02/01 03:38:01;;;;;;;15.30;10.50;;;;;;;20.59;28.20;102039.55;102645;1299;61604;-80
2024/02/01 03:40:27;;;;;;;13.10;10.50;;;;;;;20.60;28.08;102040.97;102788;1292;61321;-80
2024/02/01 03:42:53;;;;;;;15.80;10.40;;;;;;;20.60;28.12;102034.69;102578;1293;61437;-79
2024/02/01 03:45:20;;;;;;;13.70;10.80;;;;;;;20.61;28.03;102029.30;102807;1296;75623;-78
2024/02/01 03:47:46;;;;;;;15.60;9.70;;;;;;;20.60;28.00;102032.72;102700;1293;61409;-78
2024/02/01 03:50:12;;;;;;;12.60;10.20;;;;;;;20.61;27.96;102031.77;102768;1297;62537;-79
2024/02/01 03:52:39;;;;;;;13.20;10.30;;;;;;;20.61;28.09;102031.06;102978;1294;61357;-79
2024/02/01 03:55:16;;;;;;;13.90;10.20;;;;;;;20.62;28.08;102026.73;102610;1299;61430;-78
2024/02/01 03:57:46;;;;;;;11.70;9.60;;;;;;;20.62;28.07;102023.35;102753;1297;61195;-79
2024/02/01 04:00:25;;;;;;;13.20;10.40;;;;;;;20.62;28.12;102018.15;102627;1297;61534;-78
2024/02/01 04:02:57;;;;;;;12.00;9.90;;;;;;;20.62;28.09;102019.95;102600;1297;72354;-80
2024/02/01 04:05:27;;;;;;;14.10;10.70;;;;;;;20.62;28.09;102019.41;102709;1297;74689;-80
2024/02/01 04:07:56;;;;;;;14.00;10.40;;;;;;;20.63;28.07;102018.84;102784;1298;61360;-79
2024/02/01 04:10:22;;;;;;;16.00;10.60;;;;;;;20.63;28.05;102013.63;102733;1300;62047;-79
2024/02/01 04:12:48;;;;;;;13.60;9.50;;;;;;;20.63;28.09;102013.64;102669;1300;61408;-79
2024/02/01 04:15:14;;;;;;;13.10;10.30;;;;;;;20.64;28.04;102009.85;102861;1293;62733;-79
2024/02/01 04:17:41;;;;;;;13.70;10.30;;;;;;;20.64;27.97;102005.35;102734;1297;61474;-79
2024/02/01 04:20:08;;;;;;;13.80;10.30;;;;;;;20.64;27.80;102003.73;102627;1297;61394;-79
2024/02/01 04:22:34;;;;;;;13.30;10.10;;;;;;;20.64;28.11;102003.55;102671;1298;61556;-79
2024/02/01 04:25:00;;;;;;;12.00;10.00;;;;;;;20.65;27.93;101999.23;102679;1299;61451;-79
2024/02/01 04:27:26;;;;;;;14.20;9.90;;;;;;;20.65;28.04;101999.95;102643;1297;61418;-79
2024/02/01 04:29:51;;;;;;;13.80;10.10;;;;;;;20.65;27.92;102004.59;102730;1297;61476;-79
2024/02/01 04:32:17;;;;;;;12.10;9.90;;;;;;;20.65;27.87;102005.33;102665;1297;61501;-79
2024/02/01 04:34:43;;;;;;;13.20;10.00;;;;;;;20.65;27.77;102006.90;102748;1293;63419;-79
2024/02/01 04:37:19;;;;;;;12.20;10.00;;;;;;;20.66;27.76;102008.13;102647;1299;74393;-78
2024/02/01 04:39:48;;;;;;;13.80;10.10;;;;;;;20.66;27.77;102009.19;102633;1293;61435;-79
2024/02/01 04:42:16;;;;;;;17.00;10.90;;;;;;;20.66;27.75;102013.28;102720;1297;61308;-79
2024/02/01 04:45:05;;;;;;;19.80;11.30;;;;;;;20.65;27.67;102016.02;102771;1292;72376;-79
2024/02/01 04:47:51;;;;;;;;;;;;;;;20.65;27.72;102014.08;102726;1296;75494;-78
2024/02/01 04:50:17;;;;;;;15.90;11.50;;;;;;;20.62;27.72;102010.98;102763;1297;62585;-79
2024/02/01 04:53:00;;;;;;;16.20;11.00;;;;;;;20.63;27.57;102014.36;102845;1297;61389;-79
2024/02/01 04:55:26;;;;;;;16.60;12.10;;;;;;;20.63;27.45;102015.26;102639;1297;61317;-79
2024/02/01 04:57:52;;;;;;;14.80;11.60;;;;;;;20.62;27.32;102014.23;102400;1305;61406;-79
2024/02/01 05:00:21;;;;;;;14.70;11.80;;;;;;;20.61;27.29;102013.91;102766;1295;61577;-80
2024/02/01 05:02:47;;;;;;;15.90;12.20;;;;;;;20.59;27.11;102009.70;102677;1294;61344;-78
2024/02/01 05:05:14;;;;;;;18.80;13.10;;;;;;;20.57;27.02;102009.23;102705;1297;61286;-80
2024/02/01 05:07:40;;;;;;;17.00;12.80;;;;;;;20.55;26.91;102004.88;102703;1297;75065;-79
2024/02/01 05:10:08;;;;;;;17.30;13.40;;;;;;;20.53;26.76;102003.74;102794;1292;61428;-79
2024/02/01 05:12:37;;;;;;;19.00;13.50;;;;;;;20.50;26.56;101998.16;102897;1303;61468;-78
2024/02/01 05:15:05;;;;;;;19.80;14.80;;;;;;;20.47;26.32;101997.79;102384;1297;72580;-80
2024/02/01 05:17:31;;;;;;;20.40;14.40;;;;;;;20.43;26.22;101995.11;102364;1300;74871;-80
2024/02/01 05:19:59;;;;;;;23.00;16.00;;;;;;;20.39;26.22;101993.33;102455;1297;61980;-80
2024/02/01 05:22:31;;;;;;;22.90;14.20;;;;;;;20.36;26.19;101997.43;102479;1296;61570;-80
2024/02/01 05:24:58;;;;;;;22.40;14.50;;;;;;;20.33;26.19;101996.73;102612;1298;72577;-80
2024/02/01 05:27:23;;;;;;;19.70;14.50;;;;;;;20.30;26.16;101999.86;102314;1303;61805;-79
2024/02/01 05:29:52;;;;;;;19.50;14.20;;;;;;;20.28;26.12;102003.58;102518;1301;61482;-80
2024/02/01 05:32:18;;;;;;;19.60;13.70;;;;;;;20.26;26.01;102004.53;102556;1300;61417;-80
2024/02/01 05:34:47;;;;;;;22.10;13.30;;;;;;;20.25;26.01;102007.09;102786;1304;62044;-80
2024/02/01 05:37:13;;;;;;;23.00;13.80;;;;;;;20.23;25.93;102007.53;102686;1300;74550;-80
2024/02/01 05:39:44;;;;;;;25.50;15.00;;;;;;;20.20;26.00;102011.46;102886;1299;61428;-79
2024/02/01 05:42:13;;;;;;;18.90;14.10;;;;;;;20.16;25.79;102011.81;102808;1299;61511;-80
2024/02/01 05:44:39;;;;;;;19.60;14.50;;;;;;;20.12;25.90;102013.23;103052;1299;73794;-80
2024/02/01 05:47:05;;;;;;;23.20;14.90;;;;;;;20.07;25.94;102007.58;103355;1294;75316;-80
2024/02/01 05:49:33;;;;;;;20.20;14.30;;;;;;;20.03;25.92;102006.69;103255;1298;61411;-80
2024/02/01 05:52:05;;;;;;;19.60;14.20;;;;;;;19.99;25.89;102009.39;103670;1293;61589;-80
2024/02/01 05:54:32;;;;;;;19.40;14.90;;;;;;;19.95;25.71;102009.05;103452;1293;71940;-80
2024/02/01 05:56:58;;;;;;;19.60;14.20;;;;;;;19.91;25.83;102004.23;104107;1294;74239;-80
2024/02/01 05:59:24;;;;;;;23.60;14.30;;;;;;;19.88;25.65;101999.94;103835;1297;61312;-80
2024/02/01 06:01:50;;;;;;;18.80;13.80;;;;;;;19.84;25.76;102003.46;104291;1292;61410;-78
2024/02/01 06:04:15;;;;;;;21.00;13.60;;;;;;;19.82;25.74;102005.91;104181;1295;61353;-82
2024/02/01 06:06:45;;;;;;;19.00;13.40;;;;;;;19.80;25.81;102011.38;104608;1293;61433;-81
2024/02/01 06:09:12;;;;;;;19.60;14.70;;;;;;;19.77;25.84;102008.60;104392;1293;61332;-79
2024/02/01 06:11:39;;;;;;;21.60;13.30;;;;;;;19.78;25.75;102011.78;104130;1293;61319;-77
2024/02/01 06:14:05;;;;;;;18.60;13.50;;;;;;;19.80;25.85;102012.07;104428;1294;61288;-77
2024/02/01 06:16:30;;;;;;;18.70;13.60;;;;;;;19.84;25.85;102006.57;104298;1294;61348;-79
2024/02/01 06:18:56;;;;;;;20.30;13.90;;;;;;;19.86;25.81;102000.39;104277;1292;62133;-78
2024/02/01 06:21:22;;;;;;;20.90;14.40;;;;;;;19.89;25.61;101998.27;103776;1294;61690;-79
2024/02/01 06:23:47;;;;;;;20.30;14.30;;;;;;;19.92;25.57;101996.15;103796;1292;61573;-79
2024/02/01 06:26:26;;;;;;;16.50;11.10;;;;;;;19.96;25.72;101994.20;104004;1292;61365;-80
2024/02/01 06:29:00;;;;;;;17.60;12.90;;;;;;;20.02;26.30;101997.67;103998;1297;73499;-80
2024/02/01 06:31:26;;;;;;;16.60;13.50;;;;;;;20.06;26.32;101991.58;104430;1294;61209;-79
2024/02/01 06:33:53;;;;;;;17.70;13.70;;;;;;;20.08;26.40;101989.84;103636;1294;61292;-79
2024/02/01 06:36:19;;;;;;;16.10;12.70;;;;;;;20.09;26.32;101985.67;103639;1297;61421;-79
2024/02/01 06:41:48;;;;;;;19.50;13.30;;;;;;;20.14;26.31;101982.61;103256;1298;62412;-79
2024/02/01 06:44:26;;;;;;;18.30;12.80;;;;;;;20.18;26.15;101976.88;103349;1295;61397;-80
2024/02/01 06:49:59;;;;;;;;;;;;;;;;;;;;;
2024/02/01 06:58:03;;;;;;;24.00;13.80;;;;;;;20.30;26.28;101951.05;103363;1305;71823;-79
2024/02/01 07:06:25;;;;;;;20.80;13.10;;;;;;;20.35;26.52;101931.69;102477;1311;61441;-79
2024/02/01 07:08:52;;;;;;;18.90;12.30;;;;;;;20.38;26.52;101926.89;102604;1311;72322;-79
2024/02/01 07:11:30;;;;;;;17.90;12.10;;;;;;;20.41;26.46;101928.89;102497;1314;74646;-81
2024/02/01 07:16:35;;;;;;;20.10;12.10;;;;;;;20.47;26.54;101932.54;102803;1305;60768;-78
2024/02/01 07:19:12;;;;;;;16.50;11.20;;;;;;;20.49;26.56;101936.73;104658;1306;71796;-79
2024/02/01 08:00:17;;;;;;;22.90;12.20;;;;;;;20.65;26.68;101901.20;104375;1293;61303;-80
2024/02/01 08:03:03;;;;;;;19.20;13.50;;;;;;;20.64;26.78;101897.30;104307;1293;73506;-79
2024/02/01 08:08:16;;;;;;;17.80;13.30;;;;;;;20.64;26.61;101897.16;104621;1294;61323;-78
2024/02/01 08:10:44;;;;;;;22.40;13.80;;;;;;;20.64;26.54;101894.45;104537;1292;62211;-78
2024/02/01 08:13:12;;;;;;;20.80;13.90;;;;;;;20.66;26.36;101894.70;105720;1292;73718;-80
2024/02/01 08:15:41;;;;;;;19.60;13.70;;;;;;;20.67;26.18;101895.34;105527;1293;75779;-80
2024/02/01 08:18:08;;;;;;;20.10;13.60;;;;;;;20.69;26.03;101888.30;105734;1292;60146;-79
2024/02/01 08:20:37;;;;;;;20.30;13.50;;;;;;;20.71;26.09;101888.05;105716;1293;60343;-79
2024/02/01 08:23:03;;;;;;;19.60;13.90;;;;;;;20.71;25.87;101890.56;105849;1292;73580;-79
2024/02/01 08:25:30;;;;;;;17.90;13.90;;;;;;;20.71;26.06;101893.21;105593;1292;59471;-79
2024/02/01 08:28:00;;;;;;;16.90;12.60;;;;;;;20.73;25.87;101896.66;105791;1292;59672;-79
2024/02/01 08:30:27;;;;;;;20.30;13.00;;;;;;;20.75;25.86;101891.56;105710;1293;59912;-79
2024/02/01 08:32:53;;;;;;;18.70;12.90;;;;;;;20.77;26.07;101885.56;105742;1293;74601;-79
2024/02/01 08:35:19;;;;;;;19.70;13.10;;;;;;;20.79;25.88;101884.23;105847;1291;60231;-80
2024/02/01 08:37:44;;;;;;;20.40;12.40;;;;;;;20.81;25.85;101883.03;105873;1292;59035;-79
2024/02/01 08:40:20;;;;;;;16.80;12.50;;;;;;;20.83;25.98;101878.26;105695;1293;58965;-78
2024/02/01 08:42:51;;;;;;;20.20;12.80;;;;;;;20.87;25.97;101877.91;105039;1292;72313;-79
2024/02/01 08:45:17;;;;;;;19.90;11.90;;;;;;;20.89;25.97;101882.76;105731;1293;77306;-79
2024/02/01 08:47:43;;;;;;;17.20;12.00;;;;;;;20.91;25.95;101883.20;105659;1293;59671;-80
2024/02/01 08:50:10;;;;;;;21.40;13.30;;;;;;;20.93;25.84;101883.64;105657;1292;60038;-79
2024/02/01 08:52:45;;;;;;;18.10;12.90;;;;;;;20.94;25.92;101877.52;105733;1294;59271;-79
2024/02/01 08:55:13;;;;;;;26.30;13.40;;;;;;;20.94;25.89;101873.05;105594;1292;74632;-80
2024/02/01 08:57:42;;;;;;;21.70;14.00;;;;;;;20.91;26.02;101871.06;105682;1293;58975;-82
2024/02/01 09:00:21;;;;;;;22.40;13.20;;;;;;;20.84;26.00;101870.34;105713;1292;60046;-81
2024/02/01 09:03:02;;;;;;;22.90;12.50;;;;;;;20.76;26.05;101864.16;105378;1292;72271;-78
2024/02/01 09:05:36;;;;;;;20.20;12.20;;;;;;;20.71;26.34;101856.73;103991;1293;75372;-80
2024/02/01 09:08:03;;;;;;;19.60;11.80;;;;;;;20.69;26.31;101850.91;103761;1295;61348;-79
2024/02/01 09:10:29;;;;;;;18.10;12.40;;;;;;;20.70;26.53;101849.48;103717;1292;61292;-78
2024/02/01 09:12:55;;;;;;;20.10;11.90;;;;;;;20.70;26.77;101849.06;103550;1292;61343;-78
2024/02/01 09:15:21;;;;;;;19.10;12.00;;;;;;;20.72;26.84;101844.00;103737;1296;61529;-79
2024/02/01 09:17:46;;;;;;;19.00;12.30;;;;;;;20.72;26.82;101833.92;103905;1292;61578;-79
2024/02/01 09:20:20;;;;;;;20.50;11.40;;;;;;;20.73;26.96;101831.92;103492;1294;61486;-79
2024/02/01 09:22:50;;;;;;;19.30;12.00;;;;;;;20.73;26.90;101828.71;103766;1293;72478;-78
2024/02/01 09:25:22;;;;;;;20.40;12.50;;;;;;;20.73;26.87;101825.13;103627;1295;75466;-80
2024/02/01 09:27:52;;;;;;;15.60;11.30;;;;;;;20.74;26.77;101820.98;104231;1294;61402;-79
2024/02/01 09:30:19;;;;;;;21.90;12.50;;;;;;;20.75;26.85;101821.29;104001;1294;61419;-79
2024/02/01 09:32:49;;;;;;;18.00;11.60;;;;;;;20.76;26.61;101821.04;103907;1293;72637;-80
2024/02/01 09:35:16;;;;;;;18.30;11.20;;;;;;;20.77;26.95;101811.50;104265;1292;74398;-78
2024/02/01 09:37:42;;;;;;;16.60;11.00;;;;;;;20.80;26.97;101813.50;104253;1293;61404;-79
2024/02/01 09:40:10;;;;;;;20.40;10.60;;;;;;;20.82;26.77;101814.11;104145;1292;59809;-78
2024/02/01 09:42:41;;;;;;;18.60;11.20;;;;;;;20.85;27.06;101809.85;104097;1294;72462;-79
2024/02/01 09:45:07;;;;;;;18.80;10.60;;;;;;;20.86;27.02;101808.16;104146;1293;75826;-78
2024/02/01 09:47:43;;;;;;;19.70;11.40;;;;;;;20.87;27.13;101802.02;104331;1293;59317;-79
2024/02/01 09:50:16;;;;;;;21.60;11.10;;;;;;;20.89;27.12;101802.23;104895;1295;61245;-80
2024/02/01 09:52:43;;;;;;;22.00;10.80;;;;;;;20.89;27.26;101798.48;104794;1293;61347;-81
2024/02/01 09:55:08;;;;;;;38.40;12.20;;;;;;;20.85;27.59;101795.89;104947;1293;61298;-80
2024/02/01 09:57:40;;;;;;;36.80;12.40;;;;;;;20.83;28.02;101790.42;104453;1297;63516;-79
2024/02/01 10:00:12;;;;;;;27.00;12.40;;;;;;;20.83;28.50;101787.77;104688;1293;59999;-80
2024/02/01 10:02:40;;;;;;;28.80;10.70;;;;;;;20.77;28.54;101780.39;104787;1293;72433;-79
2024/02/01 10:05:07;;;;;;;26.30;11.30;;;;;;;20.71;28.52;101773.38;105653;1291;74505;-81
2024/02/01 10:07:33;;;;;;;23.60;10.90;;;;;;;20.66;28.73;101769.14;105726;1293;61348;-80
2024/02/01 10:10:01;;;;;;;23.40;11.10;;;;;;;20.61;28.59;101762.60;104993;1293;61117;-79
2024/02/01 10:12:29;;;;;;;16.30;10.70;;;;;;;20.55;28.51;101761.68;104888;1296;72665;-82
2024/02/01 10:14:55;;;;;;;19.50;10.40;;;;;;;20.48;28.33;101760.25;104678;1291;75567;-80
2024/02/01 10:17:21;;;;;;;24.90;10.70;;;;;;;20.43;28.37;101756.22;104849;1293;61147;-81
2024/02/01 10:19:49;;;;;;;20.90;10.90;;;;;;;20.41;28.52;101749.19;104365;1292;62084;-79
2024/02/01 10:22:15;;;;;;;21.80;10.60;;;;;;;20.41;28.57;101739.38;104476;1292;73315;-78
2024/02/01 10:24:48;;;;;;;20.70;11.10;;;;;;;20.39;28.54;101732.11;104292;1294;61295;-78
2024/02/01 10:27:15;;;;;;;26.60;11.10;;;;;;;20.40;28.62;101724.59;104453;1296;61077;-81
2024/02/01 10:29:42;;;;;;;20.40;11.00;;;;;;;20.40;28.59;101723.88;104210;1293;61352;-81
2024/02/01 10:32:12;;;;;;;19.50;10.50;;;;;;;20.39;28.79;101721.56;104236;1292;73458;-82
2024/02/01 10:34:50;;;;;;;17.50;10.50;;;;;;;20.39;28.93;101715.86;104151;1293;74506;-79
2024/02/01 10:37:17;;;;;;;17.00;10.10;;;;;;;20.38;29.00;101706.42;104522;1292;61186;-80
2024/02/01 10:39:49;;;;;;;15.60;10.40;;;;;;;20.37;28.88;101704.52;104131;1292;61229;-79
2024/02/01 10:42:15;;;;;;;24.00;10.40;;;;;;;20.36;29.09;101696.52;104462;1294;71199;-80
2024/02/01 10:44:41;;;;;;;17.90;10.50;;;;;;;20.35;28.95;101691.92;104421;1293;61418;-80
2024/02/01 10:47:13;;;;;;;14.30;10.50;;;;;;;20.35;28.90;101684.98;104021;1293;61701;-80
2024/02/01 10:49:43;;;;;;;19.00;10.30;;;;;;;20.36;29.20;101688.51;104088;1293;61368;-79
2024/02/01 10:52:09;;;;;;;18.60;9.90;;;;;;;20.36;29.21;101677.44;104138;1292;72660;-80
2024/02/01 10:54:35;;;;;;;16.70;9.50;;;;;;;20.36;29.43;101675.64;104010;1293;59681;-79
2024/02/01 10:57:05;;;;;;;19.50;10.00;;;;;;;20.38;29.52;101673.58;103920;1292;61357;-79
2024/02/01 10:59:30;;;;;;;;;;;;;;;20.38;29.64;101669.10;104309;1293;61269;-80
2024/02/01 11:01:56;;;;;;;17.80;9.80;;;;;;;20.34;29.64;101661.98;104469;1292;61433;-80
2024/02/01 11:04:21;;;;;;;22.10;11.90;;;;;;;20.33;29.65;101652.18;104626;1292;61624;-81
2024/02/01 11:06:48;;;;;;;22.90;13.10;;;;;;;20.24;29.33;101650.17;104603;1293;61395;-80
2024/02/01 11:09:22;;;;;;;18.00;10.70;;;;;;;20.01;28.92;101647.45;104601;1293;60859;-85
2024/02/01 11:11:55;;;;;;;26.90;11.00;;;;;;;19.87;29.03;101646.59;104203;1294;72626;-81
2024/02/01 11:14:33;;;;;;;20.70;11.00;;;;;;;19.85;29.33;101637.97;104463;1292;75025;-79
2024/02/01 11:17:01;;;;;;;24.00;11.80;;;;;;;19.84;29.41;101639.27;105635;1293;60210;-80
2024/02/01 11:19:32;;;;;;;22.50;11.60;;;;;;;19.83;29.35;101635.94;105619;1294;60688;-80
2024/02/01 11:22:01;;;;;;;15.30;11.10;;;;;;;19.81;29.24;101630.46;105614;1293;72791;-78
2024/02/01 11:24:34;;;;;;;17.10;11.00;;;;;;;19.83;29.31;101628.08;105528;1292;74477;-78
2024/02/01 11:27:16;;;;;;;21.30;10.80;;;;;;;19.85;29.50;101619.00;105635;1293;61086;-79
2024/02/01 11:29:48;;;;;;;18.80;10.80;;;;;;;19.88;29.29;101614.75;104694;1294;60238;-80
2024/02/01 11:32:21;;;;;;;16.90;10.60;;;;;;;19.91;29.38;101614.77;104383;1296;71599;-80
2024/02/01 11:34:52;;;;;;;18.30;10.30;;;;;;;19.93;29.40;101608.58;104293;1292;74453;-79
2024/02/01 11:37:24;;;;;;;16.80;10.10;;;;;;;19.96;29.48;101598.45;104098;1292;61256;-78
2024/02/01 11:39:50;;;;;;;18.20;10.40;;;;;;;19.97;29.53;101596.05;105731;1293;60550;-80
2024/02/01 11:42:15;;;;;;;15.20;11.40;;;;;;;19.98;29.59;101594.75;105799;1292;59237;-79
2024/02/01 11:44:41;;;;;;;19.90;9.90;;;;;;;19.96;29.47;101598.45;105255;1293;61397;-80
2024/02/01 11:47:08;;;;;;;13.70;10.30;;;;;;;19.93;29.53;101592.11;104338;1294;61362;-81
2024/02/01 11:49:38;;;;;;;17.50;9.90;;;;;;;19.91;29.43;101584.37;104307;1294;61409;-81
2024/02/01 11:52:29;;;;;;;12.30;8.80;;;;;;;19.89;29.34;101580.73;104308;1292;71479;-80
2024/02/01 11:54:54;;;;;;;14.70;8.50;;;;;;;19.88;29.09;101577.60;104226;1293;74728;-81
2024/02/01 11:57:21;;;;;;;18.30;10.30;;;;;;;19.88;29.19;101574.22;104327;1294;61326;-80
2024/02/01 11:59:47;;;;;;;21.30;10.30;;;;;;;19.86;29.10;101575.35;104196;1296;61296;-81
2024/02/01 12:02:15;;;;;;;20.30;10.80;;;;;;;19.81;28.88;101579.75;104575;1297;61438;-80
2024/02/01 12:04:45;;;;;;;20.50;11.70;;;;;;;19.74;28.61;101572.77;104617;1295;74824;-80
2024/02/01 12:07:14;;;;;;;25.30;11.90;;;;;;;19.69;28.81;101569.45;104737;1297;60424;-80
2024/02/01 12:09:40;;;;;;;;;;;;;;;19.69;29.05;101564.86;105518;1295;61075;-81